Terminal Aerodrome Forecast
Issued by NWS Mt. Holly, NJ

Home | Current Version | Previous Version | Text Only | Print | Product List | Glossary On
Versions: 1 2 3 4 5 6 7 8 9 10 11 12 13 14 15 16 17 18 19 20 21 22
000
FTUS41 KPHI 231900 AAA
TAFACY
TAF AMD
KACY 231941Z 2320/2418 31014G22KT P6SM SCT025 OVC040
      TEMPO 2320/2323 OVC025
     FM240000 31010KT P6SM OVC040
     FM241400 31012G20KT P6SM BKN045
     FM241700 31012G20KT P6SM SCT045=

USA.gov is the U.S. government's official web portal to all federal, state and local government web resources and services.